sensor_id;sensor_type;location;lat;lon;timestamp;pressure;altitude;pressure_sealevel;temperature;humidity
33795;BME280;51430;52.242;21.118;2023-04-30T00:00:56;100060.58;;;12.63;74.95
33795;BME280;51430;52.242;21.118;2023-04-30T00:03:30;100061.65;;;12.73;76.08
33795;BME280;51430;52.242;21.118;2023-04-30T00:05:57;100059.69;;;12.82;75.94
33795;BME280;51430;52.242;21.118;2023-04-30T00:08:23;100062.58;;;12.89;76.37
33795;BME280;51430;52.242;21.118;2023-04-30T00:10:49;100060.91;;;12.81;75.46
33795;BME280;51430;52.242;21.118;2023-04-30T00:13:16;100057.22;;;12.69;76.07
33795;BME280;51430;52.242;21.118;2023-04-30T00:15:44;100056.13;;;12.48;77.30
33795;BME280;51430;52.242;21.118;2023-04-30T00:18:10;100056.52;;;12.34;78.17
33795;BME280;51430;52.242;21.118;2023-04-30T00:24:32;100058.76;;;12.21;79.14
33795;BME280;51430;52.242;21.118;2023-04-30T00:26:58;100057.23;;;12.20;79.65
33795;BME280;51430;52.242;21.118;2023-04-30T00:29:25;100060.69;;;12.23;80.35
33795;BME280;51430;52.242;21.118;2023-04-30T00:31:51;100061.74;;;12.17;80.63
33795;BME280;51430;52.242;21.118;2023-04-30T00:34:18;100063.23;;;12.14;80.00
33795;BME280;51430;52.242;21.118;2023-04-30T00:36:44;100062.55;;;12.12;80.22
33795;BME280;51430;52.242;21.118;2023-04-30T00:39:10;100064.19;;;12.13;80.09
33795;BME280;51430;52.242;21.118;2023-04-30T00:41:37;100066.02;;;12.14;80.29
33795;BME280;51430;52.242;21.118;2023-04-30T00:44:05;100066.92;;;12.18;79.74
33795;BME280;51430;52.242;21.118;2023-04-30T00:46:31;100068.35;;;12.19;80.07
33795;BME280;51430;52.242;21.118;2023-04-30T00:48:58;100070.36;;;12.28;80.16
33795;BME280;51430;52.242;21.118;2023-04-30T00:51:28;100071.50;;;12.27;80.22
33795;BME280;51430;52.242;21.118;2023-04-30T00:53:55;100073.45;;;12.33;80.28
33795;BME280;51430;52.242;21.118;2023-04-30T00:56:21;100076.52;;;12.36;80.19
33795;BME280;51430;52.242;21.118;2023-04-30T00:58:48;100072.55;;;12.39;80.01
33795;BME280;51430;52.242;21.118;2023-04-30T01:01:16;100068.88;;;12.43;79.93
33795;BME280;51430;52.242;21.118;2023-04-30T01:03:43;100071.81;;;12.53;80.08
33795;BME280;51430;52.242;21.118;2023-04-30T01:06:09;100071.00;;;12.58;80.10
33795;BME280;51430;52.242;21.118;2023-04-30T01:08:36;100068.23;;;12.62;80.61
33795;BME280;51430;52.242;21.118;2023-04-30T01:14:04;100071.58;;;12.65;81.75
33795;BME280;51430;52.242;21.118;2023-04-30T01:16:46;100073.10;;;12.60;80.94
33795;BME280;51430;52.242;21.118;2023-04-30T01:19:43;100074.66;;;12.51;80.85
33795;BME280;51430;52.242;21.118;2023-04-30T01:22:34;100074.48;;;12.46;81.01
33795;BME280;51430;52.242;21.118;2023-04-30T01:28:08;100072.90;;;12.43;81.04
33795;BME280;51430;52.242;21.118;2023-04-30T01:30:35;100076.23;;;12.49;81.06
33795;BME280;51430;52.242;21.118;2023-04-30T01:33:02;100071.00;;;12.56;80.97
33795;BME280;51430;52.242;21.118;2023-04-30T01:44:31;100083.45;;;12.42;81.90
33795;BME280;51430;52.242;21.118;2023-04-30T01:47:06;100083.52;;;12.51;82.39
33795;BME280;51430;52.242;21.118;2023-04-30T01:52:38;100083.02;;;12.47;83.11
33795;BME280;51430;52.242;21.118;2023-04-30T01:56:11;100089.23;;;12.50;84.42
33795;BME280;51430;52.242;21.118;2023-04-30T01:58:31;100088.16;;;12.52;86.39
33795;BME280;51430;52.242;21.118;2023-04-30T02:00:57;100087.46;;;12.65;87.46
33795;BME280;51430;52.242;21.118;2023-04-30T02:03:24;100089.98;;;12.73;88.38
33795;BME280;51430;52.242;21.118;2023-04-30T02:05:51;100093.11;;;12.77;88.92
33795;BME280;51430;52.242;21.118;2023-04-30T02:08:18;100093.81;;;12.83;89.69
33795;BME280;51430;52.242;21.118;2023-04-30T02:10:44;100092.20;;;12.79;89.55
33795;BME280;51430;52.242;21.118;2023-04-30T02:13:11;100089.42;;;12.75;89.46
33795;BME280;51430;52.242;21.118;2023-04-30T02:15:37;100090.64;;;12.67;89.53
33795;BME280;51430;52.242;21.118;2023-04-30T02:18:03;100091.67;;;12.65;89.86
33795;BME280;51430;52.242;21.118;2023-04-30T02:20:30;100096.09;;;12.67;90.10
33795;BME280;51430;52.242;21.118;2023-04-30T02:23:00;100092.56;;;12.67;90.26
33795;BME280;51430;52.242;21.118;2023-04-30T02:25:26;100096.73;;;12.74;90.73
33795;BME280;51430;52.242;21.118;2023-04-30T02:27:52;100097.45;;;12.77;90.97
33795;BME280;51430;52.242;21.118;2023-04-30T02:30:19;100098.39;;;12.84;91.10
33795;BME280;51430;52.242;21.118;2023-04-30T02:32:46;100100.91;;;12.91;91.18
33795;BME280;51430;52.242;21.118;2023-04-30T02:35:13;100102.35;;;12.90;91.20
33795;BME280;51430;52.242;21.118;2023-04-30T02:37:39;100102.66;;;12.97;91.74
33795;BME280;51430;52.242;21.118;2023-04-30T02:40:06;100105.60;;;13.05;92.12
33795;BME280;51430;52.242;21.118;2023-04-30T02:42:33;100107.24;;;13.16;91.84
33795;BME280;51430;52.242;21.118;2023-04-30T02:44:59;100105.80;;;13.22;91.48
33795;BME280;51430;52.242;21.118;2023-04-30T02:47:26;100114.77;;;13.21;91.47
33795;BME280;51430;52.242;21.118;2023-04-30T02:50:22;100118.20;;;13.24;91.66
33795;BME280;51430;52.242;21.118;2023-04-30T02:52:48;100119.09;;;13.22;91.39
33795;BME280;51430;52.242;21.118;2023-04-30T02:55:15;100119.98;;;13.28;91.18
33795;BME280;51430;52.242;21.118;2023-04-30T02:57:41;100125.77;;;13.32;90.71
33795;BME280;51430;52.242;21.118;2023-04-30T03:00:08;100130.73;;;13.36;90.52
33795;BME280;51430;52.242;21.118;2023-04-30T03:02:35;100133.11;;;13.39;90.29
33795;BME280;51430;52.242;21.118;2023-04-30T03:05:02;100135.23;;;13.43;89.23
33795;BME280;51430;52.242;21.118;2023-04-30T03:07:29;100142.27;;;13.37;88.76
33795;BME280;51430;52.242;21.118;2023-04-30T03:09:55;100146.09;;;13.37;88.87
33795;BME280;51430;52.242;21.118;2023-04-30T03:12:22;100147.61;;;13.40;88.62
33795;BME280;51430;52.242;21.118;2023-04-30T03:14:49;100149.38;;;13.36;87.92
33795;BME280;51430;52.242;21.118;2023-04-30T03:17:15;100153.17;;;13.21;86.97
33795;BME280;51430;52.242;21.118;2023-04-30T03:19:41;100157.65;;;13.20;86.64
33795;BME280;51430;52.242;21.118;2023-04-30T03:25:37;100165.29;;;12.99;86.99
33795;BME280;51430;52.242;21.118;2023-04-30T03:28:04;100167.90;;;12.99;87.10
33795;BME280;51430;52.242;21.118;2023-04-30T03:30:30;100172.27;;;12.95;87.40
33795;BME280;51430;52.242;21.118;2023-04-30T03:32:56;100176.70;;;12.99;87.61
33795;BME280;51430;52.242;21.118;2023-04-30T03:39:36;100182.80;;;12.79;88.29
33795;BME280;51430;52.242;21.118;2023-04-30T03:42:03;100187.14;;;12.82;87.86
33795;BME280;51430;52.242;21.118;2023-04-30T03:44:29;100188.00;;;12.86;87.56
33795;BME280;51430;52.242;21.118;2023-04-30T03:46:55;100195.32;;;12.80;87.60
33795;BME280;51430;52.242;21.118;2023-04-30T03:49:22;100205.05;;;12.81;87.59
33795;BME280;51430;52.242;21.118;2023-04-30T03:51:48;100207.46;;;12.75;87.24
33795;BME280;51430;52.242;21.118;2023-04-30T03:54:14;100214.64;;;12.65;87.00
33795;BME280;51430;52.242;21.118;2023-04-30T03:56:41;100216.23;;;12.65;86.42
33795;BME280;51430;52.242;21.118;2023-04-30T03:59:07;100216.08;;;12.53;84.42
33795;BME280;51430;52.242;21.118;2023-04-30T04:01:33;100222.57;;;12.53;83.00
33795;BME280;51430;52.242;21.118;2023-04-30T04:04:00;100224.12;;;12.43;81.96
33795;BME280;51430;52.242;21.118;2023-04-30T04:06:27;100231.04;;;12.42;81.45
33795;BME280;51430;52.242;21.118;2023-04-30T04:08:53;100233.80;;;12.40;81.00
33795;BME280;51430;52.242;21.118;2023-04-30T04:11:20;100232.66;;;12.43;80.11
33795;BME280;51430;52.242;21.118;2023-04-30T04:13:46;100243.29;;;12.43;79.48
33795;BME280;51430;52.242;21.118;2023-04-30T04:16:13;100241.71;;;12.48;78.86
33795;BME280;51430;52.242;21.118;2023-04-30T04:18:39;100245.65;;;12.51;77.82
33795;BME280;51430;52.242;21.118;2023-04-30T04:21:06;100251.23;;;12.39;76.07
33795;BME280;51430;52.242;21.118;2023-04-30T04:23:33;100251.17;;;12.37;75.27
33795;BME280;51430;52.242;21.118;2023-04-30T04:25:59;100254.68;;;12.43;74.49
33795;BME280;51430;52.242;21.118;2023-04-30T04:28:25;100262.19;;;12.47;74.39
33795;BME280;51430;52.242;21.118;2023-04-30T04:30:52;100267.13;;;12.51;73.68
33795;BME280;51430;52.242;21.118;2023-04-30T04:33:18;100272.66;;;12.50;72.71
33795;BME280;51430;52.242;21.118;2023-04-30T04:35:45;100278.58;;;12.42;72.14
33795;BME280;51430;52.242;21.118;2023-04-30T04:38:11;100281.59;;;12.31;71.99
33795;BME280;51430;52.242;21.118;2023-04-30T04:40:38;100289.33;;;12.24;71.32
33795;BME280;51430;52.242;21.118;2023-04-30T04:43:05;100294.02;;;12.27;71.50
33795;BME280;51430;52.242;21.118;2023-04-30T04:45:31;100300.68;;;12.24;71.33
33795;BME280;51430;52.242;21.118;2023-04-30T04:47:58;100305.06;;;12.24;71.58
33795;BME280;51430;52.242;21.118;2023-04-30T04:50:25;100308.90;;;12.35;71.09
33795;BME280;51430;52.242;21.118;2023-04-30T04:52:51;100312.39;;;12.33;71.09
33795;BME280;51430;52.242;21.118;2023-04-30T04:55:18;100315.77;;;12.36;71.72
33795;BME280;51430;52.242;21.118;2023-04-30T04:57:44;100318.45;;;12.38;72.09
33795;BME280;51430;52.242;21.118;2023-04-30T05:00:11;100322.96;;;12.40;72.53
33795;BME280;51430;52.242;21.118;2023-04-30T05:02:38;100331.00;;;12.50;72.52
33795;BME280;51430;52.242;21.118;2023-04-30T05:05:10;100331.48;;;12.55;72.50
33795;BME280;51430;52.242;21.118;2023-04-30T05:07:36;100336.75;;;12.59;72.16
33795;BME280;51430;52.242;21.118;2023-04-30T05:10:02;100337.73;;;12.60;71.46
33795;BME280;51430;52.242;21.118;2023-04-30T05:12:29;100340.45;;;12.54;71.39
33795;BME280;51430;52.242;21.118;2023-04-30T05:14:55;100345.61;;;12.62;71.12
33795;BME280;51430;52.242;21.118;2023-04-30T05:17:21;100347.69;;;12.68;70.26
33795;BME280;51430;52.242;21.118;2023-04-30T05:19:48;100358.67;;;12.69;69.79
33795;BME280;51430;52.242;21.118;2023-04-30T05:22:16;100356.75;;;12.72;69.82
33795;BME280;51430;52.242;21.118;2023-04-30T05:24:42;100362.23;;;12.68;69.84
33795;BME280;51430;52.242;21.118;2023-04-30T05:27:09;100366.96;;;12.72;70.67
33795;BME280;51430;52.242;21.118;2023-04-30T05:29:35;100369.91;;;12.74;70.43
33795;BME280;51430;52.242;21.118;2023-04-30T05:32:02;100377.89;;;12.77;70.50
33795;BME280;51430;52.242;21.118;2023-04-30T05:34:28;100374.13;;;12.88;69.90
33795;BME280;51430;52.242;21.118;2023-04-30T05:36:55;100378.60;;;12.91;69.80
33795;BME280;51430;52.242;21.118;2023-04-30T05:39:23;100382.55;;;13.02;69.69
33795;BME280;51430;52.242;21.118;2023-04-30T05:41:49;100386.97;;;13.02;69.03
33795;BME280;51430;52.242;21.118;2023-04-30T05:44:18;100391.62;;;13.01;70.04
33795;BME280;51430;52.242;21.118;2023-04-30T05:46:45;100389.08;;;12.99;70.14
33795;BME280;51430;52.242;21.118;2023-04-30T05:49:11;100395.23;;;13.05;70.01
33795;BME280;51430;52.242;21.118;2023-04-30T05:51:38;100397.49;;;13.12;70.06
33795;BME280;51430;52.242;21.118;2023-04-30T05:54:04;100397.27;;;13.30;69.47
33795;BME280;51430;52.242;21.118;2023-04-30T05:56:31;100397.34;;;13.45;69.30
33795;BME280;51430;52.242;21.118;2023-04-30T05:58:57;100398.79;;;13.51;68.50
33795;BME280;51430;52.242;21.118;2023-04-30T06:01:24;100400.91;;;13.52;68.22
33795;BME280;51430;52.242;21.118;2023-04-30T06:03:50;100402.49;;;13.60;67.51
33795;BME280;51430;52.242;21.118;2023-04-30T06:06:17;100405.18;;;13.68;66.83
33795;BME280;51430;52.242;21.118;2023-04-30T06:08:43;100413.94;;;13.74;66.21
33795;BME280;51430;52.242;21.118;2023-04-30T06:11:13;100418.08;;;13.88;66.41
33795;BME280;51430;52.242;21.118;2023-04-30T06:13:40;100417.63;;;13.97;65.93
33795;BME280;51430;52.242;21.118;2023-04-30T06:16:07;100426.18;;;14.09;64.66
33795;BME280;51430;52.242;21.118;2023-04-30T06:18:33;100427.31;;;14.14;65.18
33795;BME280;51430;52.242;21.118;2023-04-30T06:20:59;100431.86;;;14.28;64.48
33795;BME280;51430;52.242;21.118;2023-04-30T06:23:51;100437.38;;;14.60;63.46
33795;BME280;51430;52.242;21.118;2023-04-30T06:26:18;100436.60;;;15.11;60.84
33795;BME280;51430;52.242;21.118;2023-04-30T06:28:45;100441.09;;;15.79;56.29
33795;BME280;51430;52.242;21.118;2023-04-30T06:31:12;100439.64;;;16.40;54.60
33795;BME280;51430;52.242;21.118;2023-04-30T06:33:39;100444.27;;;16.71;52.19
33795;BME280;51430;52.242;21.118;2023-04-30T06:36:05;100443.83;;;16.98;51.33
33795;BME280;51430;52.242;21.118;2023-04-30T06:38:32;100443.38;;;16.60;49.55
33795;BME280;51430;52.242;21.118;2023-04-30T06:40:58;100444.56;;;16.99;49.93
33795;BME280;51430;52.242;21.118;2023-04-30T06:43:25;100446.65;;;17.66;47.26
33795;BME280;51430;52.242;21.118;2023-04-30T06:46:16;100451.32;;;17.99;46.21
33795;BME280;51430;52.242;21.118;2023-04-30T06:48:42;100446.52;;;18.09;45.38
33795;BME280;51430;52.242;21.118;2023-04-30T06:51:09;100445.87;;;18.47;43.47
33795;BME280;51430;52.242;21.118;2023-04-30T06:53:36;100446.52;;;18.95;42.34
33795;BME280;51430;52.242;21.118;2023-04-30T06:56:03;100449.46;;;19.39;41.58
33795;BME280;51430;52.242;21.118;2023-04-30T06:58:29;100448.11;;;19.54;41.13
33795;BME280;51430;52.242;21.118;2023-04-30T07:00:56;100453.00;;;19.61;41.18
33795;BME280;51430;52.242;21.118;2023-04-30T07:03:23;100448.02;;;19.90;40.89
33795;BME280;51430;52.242;21.118;2023-04-30T07:05:49;100452.27;;;20.12;40.21
33795;BME280;51430;52.242;21.118;2023-04-30T07:08:16;100456.56;;;20.41;39.45
33795;BME280;51430;52.242;21.118;2023-04-30T07:10:43;100458.38;;;20.87;38.53
33795;BME280;51430;52.242;21.118;2023-04-30T07:13:09;100461.21;;;21.20;37.76
33795;BME280;51430;52.242;21.118;2023-04-30T07:15:36;100462.05;;;21.30;37.12
33795;BME280;51430;52.242;21.118;2023-04-30T07:18:03;100466.44;;;21.12;37.24
33795;BME280;51430;52.242;21.118;2023-04-30T07:20:29;100463.69;;;21.24;37.91
33795;BME280;51430;52.242;21.118;2023-04-30T07:22:55;100464.14;;;21.38;37.45
33795;BME280;51430;52.242;21.118;2023-04-30T07:25:22;100473.20;;;21.31;38.34
33795;BME280;51430;52.242;21.118;2023-04-30T07:27:50;100473.58;;;21.07;37.44
33795;BME280;51430;52.242;21.118;2023-04-30T07:30:18;100479.67;;;19.51;39.35
33795;BME280;51430;52.242;21.118;2023-04-30T07:32:44;100484.09;;;18.58;40.68
33795;BME280;51430;52.242;21.118;2023-04-30T07:35:10;100489.00;;;18.41;41.94
33795;BME280;51430;52.242;21.118;2023-04-30T07:37:36;100488.26;;;19.04;40.99
33795;BME280;51430;52.242;21.118;2023-04-30T07:40:07;100496.02;;;19.69;40.61
33795;BME280;51430;52.242;21.118;2023-04-30T07:42:43;100487.31;;;20.18;39.74
33795;BME280;51430;52.242;21.118;2023-04-30T07:45:10;100485.84;;;20.82;39.21
33795;BME280;51430;52.242;21.118;2023-04-30T07:47:38;100490.25;;;21.11;38.14
33795;BME280;51430;52.242;21.118;2023-04-30T07:50:05;100492.55;;;21.14;38.09
33795;BME280;51430;52.242;21.118;2023-04-30T07:52:31;100497.49;;;21.72;38.14
33795;BME280;51430;52.242;21.118;2023-04-30T07:54:58;100500.52;;;21.87;35.86
33795;BME280;51430;52.242;21.118;2023-04-30T07:57:24;100500.48;;;21.91;35.64
33795;BME280;51430;52.242;21.118;2023-04-30T07:59:53;100501.45;;;22.14;36.18
33795;BME280;51430;52.242;21.118;2023-04-30T08:02:21;100503.80;;;22.52;34.08
33795;BME280;51430;52.242;21.118;2023-04-30T08:04:47;100498.55;;;22.75;33.39
33795;BME280;51430;52.242;21.118;2023-04-30T08:07:14;100504.23;;;23.23;33.28
33795;BME280;51430;52.242;21.118;2023-04-30T08:09:41;100507.02;;;23.22;32.73
33795;BME280;51430;52.242;21.118;2023-04-30T08:12:08;100510.64;;;22.97;33.40
33795;BME280;51430;52.242;21.118;2023-04-30T08:14:35;100513.58;;;22.60;33.62
33795;BME280;51430;52.242;21.118;2023-04-30T08:17:01;100510.91;;;22.40;33.74
33795;BME280;51430;52.242;21.118;2023-04-30T08:19:28;100516.27;;;21.98;32.96
33795;BME280;51430;52.242;21.118;2023-04-30T08:21:54;100515.29;;;21.19;33.71
33795;BME280;51430;52.242;21.118;2023-04-30T08:24:21;100513.72;;;21.04;34.52
33795;BME280;51430;52.242;21.118;2023-04-30T08:26:48;100512.21;;;21.78;34.27
33795;BME280;51430;52.242;21.118;2023-04-30T08:29:14;100516.35;;;22.48;32.89
33795;BME280;51430;52.242;21.118;2023-04-30T08:31:41;100520.62;;;22.58;32.49
33795;BME280;51430;52.242;21.118;2023-04-30T08:34:07;100528.23;;;22.97;32.24
33795;BME280;51430;52.242;21.118;2023-04-30T08:36:33;100532.15;;;23.24;32.14
33795;BME280;51430;52.242;21.118;2023-04-30T08:39:00;100535.75;;;23.44;31.44
33795;BME280;51430;52.242;21.118;2023-04-30T08:41:31;100533.55;;;23.01;32.82
33795;BME280;51430;52.242;21.118;2023-04-30T08:44:00;100532.00;;;22.88;33.66
33795;BME280;51430;52.242;21.118;2023-04-30T08:46:29;100540.23;;;23.81;32.87
33795;BME280;51430;52.242;21.118;2023-04-30T08:48:57;100548.77;;;23.34;31.26
33795;BME280;51430;52.242;21.118;2023-04-30T08:51:27;100547.15;;;22.88;31.58
33795;BME280;51430;52.242;21.118;2023-04-30T08:53:56;100548.83;;;22.80;31.84
33795;BME280;51430;52.242;21.118;2023-04-30T08:56:24;100551.99;;;22.89;30.96
33795;BME280;51430;52.242;21.118;2023-04-30T08:58:53;100556.80;;;22.46;31.45
33795;BME280;51430;52.242;21.118;2023-04-30T09:01:19;100556.63;;;22.66;30.07
33795;BME280;51430;52.242;21.118;2023-04-30T09:03:46;100559.23;;;22.83;30.15
33795;BME280;51430;52.242;21.118;2023-04-30T09:06:16;100565.15;;;23.55;29.96
33795;BME280;51430;52.242;21.118;2023-04-30T09:08:47;100572.13;;;24.09;29.00
33795;BME280;51430;52.242;21.118;2023-04-30T09:11:26;100570.91;;;24.36;28.17
33795;BME280;51430;52.242;21.118;2023-04-30T09:13:58;100571.14;;;23.74;27.98
33795;BME280;51430;52.242;21.118;2023-04-30T09:16:26;100580.79;;;23.88;27.58
33795;BME280;51430;52.242;21.118;2023-04-30T09:18:53;100575.35;;;23.89;27.88
33795;BME280;51430;52.242;21.118;2023-04-30T09:21:33;100578.54;;;24.31;28.30
33795;BME280;51430;52.242;21.118;2023-04-30T09:24:04;100578.11;;;25.27;27.28
33795;BME280;51430;52.242;21.118;2023-04-30T09:26:36;100580.04;;;25.62;26.93
33795;BME280;51430;52.242;21.118;2023-04-30T09:29:03;100582.52;;;25.45;25.67
33795;BME280;51430;52.242;21.118;2023-04-30T09:31:35;100581.34;;;25.46;25.42
33795;BME280;51430;52.242;21.118;2023-04-30T09:34:02;100588.43;;;24.83;26.63
33795;BME280;51430;52.242;21.118;2023-04-30T09:36:29;100584.27;;;24.61;26.21
33795;BME280;51430;52.242;21.118;2023-04-30T09:39:09;100592.66;;;24.67;26.25
33795;BME280;51430;52.242;21.118;2023-04-30T09:41:42;100589.55;;;24.57;26.38
33795;BME280;51430;52.242;21.118;2023-04-30T09:44:26;100591.16;;;25.05;27.08
33795;BME280;51430;52.242;21.118;2023-04-30T09:46:55;100595.66;;;25.36;25.30
33795;BME280;51430;52.242;21.118;2023-04-30T09:49:21;100595.77;;;24.29;25.98
33795;BME280;51430;52.242;21.118;2023-04-30T09:51:53;100591.85;;;24.88;26.85
33795;BME280;51430;52.242;21.118;2023-04-30T09:54:20;100594.17;;;25.23;25.54
33795;BME280;51430;52.242;21.118;2023-04-30T09:56:49;100589.27;;;25.07;25.22
33795;BME280;51430;52.242;21.118;2023-04-30T09:59:20;100587.55;;;24.49;25.60
33795;BME280;51430;52.242;21.118;2023-04-30T10:01:49;100587.35;;;24.68;26.16
33795;BME280;51430;52.242;21.118;2023-04-30T10:04:18;100583.30;;;25.71;25.80
33795;BME280;51430;52.242;21.118;2023-04-30T10:06:46;100591.20;;;26.88;24.85
33795;BME280;51430;52.242;21.118;2023-04-30T10:09:14;100592.06;;;27.45;23.23
33795;BME280;51430;52.242;21.118;2023-04-30T10:11:42;100589.88;;;27.93;22.53
33795;BME280;51430;52.242;21.118;2023-04-30T10:14:11;100591.35;;;28.38;22.14
33795;BME280;51430;52.242;21.118;2023-04-30T10:17:03;100597.02;;;28.33;22.25
33795;BME280;51430;52.242;21.118;2023-04-30T10:20:02;100607.97;;;28.51;22.36
33795;BME280;51430;52.242;21.118;2023-04-30T10:22:33;100597.77;;;29.28;22.12
33795;BME280;51430;52.242;21.118;2023-04-30T10:25:00;100595.42;;;29.11;20.92
33795;BME280;51430;52.242;21.118;2023-04-30T10:27:30;100588.27;;;27.58;22.00
33795;BME280;51430;52.242;21.118;2023-04-30T10:29:58;100591.98;;;28.32;22.19
33795;BME280;51430;52.242;21.118;2023-04-30T10:32:32;100592.64;;;29.25;22.23
33795;BME280;51430;52.242;21.118;2023-04-30T10:35:16;100596.61;;;30.27;21.16
33795;BME280;51430;52.242;21.118;2023-04-30T10:40:17;100600.79;;;29.97;19.10
33795;BME280;51430;52.242;21.118;2023-04-30T10:42:46;100604.25;;;30.04;19.07
33795;BME280;51430;52.242;21.118;2023-04-30T10:45:35;100591.61;;;29.90;19.38
33795;BME280;51430;52.242;21.118;2023-04-30T10:48:05;100591.45;;;30.25;20.26
33795;BME280;51430;52.242;21.118;2023-04-30T10:50:32;100590.83;;;30.49;19.88
33795;BME280;51430;52.242;21.118;2023-04-30T10:53:05;100594.77;;;30.39;19.91
33795;BME280;51430;52.242;21.118;2023-04-30T10:55:32;100599.73;;;30.17;18.84
33795;BME280;51430;52.242;21.118;2023-04-30T10:57:58;100600.16;;;29.79;18.28
33795;BME280;51430;52.242;21.118;2023-04-30T11:00:27;100592.83;;;29.91;18.97
33795;BME280;51430;52.242;21.118;2023-04-30T11:03:02;100599.88;;;30.43;19.32
33795;BME280;51430;52.242;21.118;2023-04-30T11:05:35;100596.26;;;30.33;19.04
33795;BME280;51430;52.242;21.118;2023-04-30T11:08:02;100605.11;;;29.70;19.52
33795;BME280;51430;52.242;21.118;2023-04-30T11:10:32;100601.29;;;29.70;19.76
33795;BME280;51430;52.242;21.118;2023-04-30T11:13:06;100605.98;;;30.58;19.11
33795;BME280;51430;52.242;21.118;2023-04-30T11:15:39;100610.88;;;30.80;19.33
33795;BME280;51430;52.242;21.118;2023-04-30T11:18:07;100610.58;;;30.77;19.74
33795;BME280;51430;52.242;21.118;2023-04-30T11:20:39;100606.72;;;31.09;18.60
33795;BME280;51430;52.242;21.118;2023-04-30T11:23:14;100612.05;;;31.14;18.31
33795;BME280;51430;52.242;21.118;2023-04-30T11:25:53;100610.33;;;31.63;18.02
33795;BME280;51430;52.242;21.118;2023-04-30T11:28:23;100612.59;;;32.16;18.32
33795;BME280;51430;52.242;21.118;2023-04-30T11:30:57;100611.17;;;31.54;18.76
33795;BME280;51430;52.242;21.118;2023-04-30T11:33:25;100614.08;;;31.94;18.83
33795;BME280;51430;52.242;21.118;2023-04-30T11:35:53;100622.13;;;32.69;18.22
33795;BME280;51430;52.242;21.118;2023-04-30T11:38:25;100617.65;;;32.81;17.98
33795;BME280;51430;52.242;21.118;2023-04-30T11:40:52;100614.15;;;32.96;18.20
33795;BME280;51430;52.242;21.118;2023-04-30T11:43:27;100615.38;;;32.44;18.68
33795;BME280;51430;52.242;21.118;2023-04-30T11:46:06;100617.95;;;31.76;18.84
33795;BME280;51430;52.242;21.118;2023-04-30T11:48:35;100623.14;;;31.58;19.66
33795;BME280;51430;52.242;21.118;2023-04-30T11:51:23;100626.48;;;31.58;19.48
33795;BME280;51430;52.242;21.118;2023-04-30T11:53:51;100630.34;;;31.22;19.37
33795;BME280;51430;52.242;21.118;2023-04-30T11:56:18;100624.36;;;31.06;19.20
33795;BME280;51430;52.242;21.118;2023-04-30T11:58:47;100628.83;;;31.40;19.11
33795;BME280;51430;52.242;21.118;2023-04-30T12:01:14;100634.45;;;31.17;19.58
33795;BME280;51430;52.242;21.118;2023-04-30T12:03:48;100636.40;;;31.22;18.55
33795;BME280;51430;52.242;21.118;2023-04-30T12:06:23;100631.45;;;31.13;18.40
33795;BME280;51430;52.242;21.118;2023-04-30T12:09:09;100635.36;;;31.11;18.57
33795;BME280;51430;52.242;21.118;2023-04-30T12:11:37;100632.24;;;30.64;19.28
33795;BME280;51430;52.242;21.118;2023-04-30T12:14:08;100633.56;;;30.97;19.60
33795;BME280;51430;52.242;21.118;2023-04-30T12:16:44;100634.61;;;32.02;18.66
33795;BME280;51430;52.242;21.118;2023-04-30T12:19:11;100637.70;;;31.91;18.45
33795;BME280;51430;52.242;21.118;2023-04-30T12:21:38;100633.75;;;31.72;19.05
33795;BME280;51430;52.242;21.118;2023-04-30T12:24:06;100634.19;;;31.98;18.62
33795;BME280;51430;52.242;21.118;2023-04-30T12:26:37;100638.60;;;32.50;18.36
33795;BME280;51430;52.242;21.118;2023-04-30T12:29:08;100640.63;;;32.99;17.64
33795;BME280;51430;52.242;21.118;2023-04-30T12:31:37;100635.65;;;32.56;17.70
33795;BME280;51430;52.242;21.118;2023-04-30T12:34:08;100632.41;;;32.33;18.58
33795;BME280;51430;52.242;21.118;2023-04-30T12:36:35;100641.95;;;32.81;17.89
33795;BME280;51430;52.242;21.118;2023-04-30T12:39:08;100631.41;;;32.03;17.75
33795;BME280;51430;52.242;21.118;2023-04-30T12:41:39;100623.64;;;31.53;18.40
33795;BME280;51430;52.242;21.118;2023-04-30T12:44:24;100625.73;;;31.90;18.64
33795;BME280;51430;52.242;21.118;2023-04-30T12:46:56;100629.96;;;31.91;18.87
33795;BME280;51430;52.242;21.118;2023-04-30T12:53:43;100621.23;;;31.22;19.04
33795;BME280;51430;52.242;21.118;2023-04-30T12:56:12;100621.27;;;31.70;18.32
33795;BME280;51430;52.242;21.118;2023-04-30T12:58:44;100618.92;;;30.17;19.34
33795;BME280;51430;52.242;21.118;2023-04-30T13:01:14;100622.27;;;29.55;19.94
33795;BME280;51430;52.242;21.118;2023-04-30T13:03:41;100620.76;;;29.57;20.15
33795;BME280;51430;52.242;21.118;2023-04-30T13:06:08;100627.21;;;29.94;20.04
33795;BME280;51430;52.242;21.118;2023-04-30T13:08:35;100622.64;;;30.54;19.32
33795;BME280;51430;52.242;21.118;2023-04-30T13:11:15;100612.33;;;30.50;18.48
33795;BME280;51430;52.242;21.118;2023-04-30T13:13:42;100611.25;;;30.42;18.82
33795;BME280;51430;52.242;21.118;2023-04-30T13:16:08;100617.45;;;30.84;18.48
33795;BME280;51430;52.242;21.118;2023-04-30T13:18:35;100617.29;;;30.37;18.84
33795;BME280;51430;52.242;21.118;2023-04-30T13:21:02;100611.58;;;30.18;19.19
33795;BME280;51430;52.242;21.118;2023-04-30T13:23:29;100610.58;;;30.48;18.59
33795;BME280;51430;52.242;21.118;2023-04-30T13:25:59;100606.77;;;30.53;17.98